Hauptseite
METAR-TAF:

METAR-TAF

Flughäfen :

Tulcea, Rumänien

Breite: 45-11N, Länge: 028-49E, Höhe: 4 m

Beobachtung

Neuester Wetterbericht von vor 24 Minuten, um 20:30 UTC
Wind 2 kt aus West
Temperatur 15°C
Luftfeuchtigkeit 88%
Luftdruck 1018 hPa
Sichtweite: 8000 m

METAR: LRTC 182030Z AUTO 28002KT 8000 BKN008/// BKN012/// 15/13 Q1018

Zeit: 23:54 (20:54 UTC)

Prognose

Neuester Wetterbericht von vor 6 Stunden und 54 Minuten, um 14:00 UTC
Gültige Prognose vom 18 um 15 UTC bis 18 um 24 UTC
Wind 4 kt aus unterschiedlichen Richtungen
Sichtweite 10 km oder mehr
Aufgelockert bewölkt in der Höhe von 3000 ft

TAF: LRTC 181400Z 1815/1824 VRB04KT 9999 SCT030

Wetterbeobachtungen und Prognosen von mehr als 4000 Flughäfen (METAR und TAF Bericht).

Die verfügbaren Stationen werden durch gelbe und rote Markierungen auf der Karte dargestellt.

Führen Sie die Maus auf sie, um den Namen der Station zu sehen.

Darauf klicken, um die Beobachtung von Wetterbeobachtungen und Prognosen zu sehen.

Um die Karte zu ändern : klicken Sie auf den grünen Tasten mit einem schwarzen Kreuz Zum Vergrößern, auf den grünen Button mit einem Gedankenstrich zu verkleinern, oder auf die grünen Pfeile für benachbarte Karten.


METAR-TAF: